Time;durP1;ratioP1;P1;durP2;ratioP2;P2;SDS_P1;SDS_P2;PMS_P1;PMS_P2;Temp;Humidity;BMP_temperature;BMP_pressure;BME280_temperature;BME280_humidity;BME280_pressure;Samples;Min_cycle;Max_cycle;Signal;HPM_P1;HPM_P2
2022/10/07 00:00:35;;;;;;;18.48;9.98;;;;;;;15.07;48.20;100735.88;5113919;28;20500;-43
2022/10/07 00:03:00;;;;;;;15.95;9.02;;;;;;;14.84;48.25;100733.63;5113433;28;20474;-43
2022/10/07 00:05:26;;;;;;;15.57;8.50;;;;;;;14.78;48.40;100737.97;5113713;28;20058;-43
2022/10/07 00:07:54;;;;;;;24.83;9.07;;;;;;;14.73;49.11;100732.38;5113548;28;20440;-43
2022/10/07 00:10:19;;;;;;;14.25;8.93;;;;;;;14.66;48.89;100740.44;5113495;28;20020;-43
2022/10/07 00:12:44;;;;;;;17.40;9.20;;;;;;;14.75;49.50;100738.38;5113153;28;20482;-42
2022/10/07 00:15:10;;;;;;;17.58;8.70;;;;;;;14.75;49.57;100743.72;5113295;28;20122;-44
2022/10/07 00:17:35;;;;;;;13.90;8.55;;;;;;;14.65;49.56;100748.69;5113305;28;20024;-43
2022/10/07 00:20:01;;;;;;;15.23;7.95;;;;;;;14.77;49.32;100736.31;5113294;28;20449;-43
2022/10/07 00:22:26;;;;;;;16.23;8.90;;;;;;;14.94;49.33;100741.25;5113172;28;20050;-42
2022/10/07 00:24:52;;;;;;;16.10;8.50;;;;;;;14.91;49.32;100737.13;5113119;28;20028;-44
2022/10/07 00:27:17;;;;;;;12.13;7.43;;;;;;;14.96;49.23;100744.53;5112605;28;20518;-43
2022/10/07 00:29:42;;;;;;;16.35;7.50;;;;;;;14.93;48.91;100748.47;5113038;28;20027;-43
2022/10/07 00:32:08;;;;;;;16.73;8.18;;;;;;;15.05;49.62;100759.38;5112899;28;20024;-42
2022/10/07 00:34:34;;;;;;;17.23;8.65;;;;;;;14.79;50.78;100761.06;5113006;28;20433;-44
2022/10/07 00:36:59;;;;;;;13.05;8.00;;;;;;;14.61;50.47;100764.34;5113018;28;20118;-44
2022/10/07 00:39:25;;;;;;;16.10;8.48;;;;;;;14.77;49.95;100762.28;5112974;28;20066;-42
2022/10/07 00:41:51;;;;;;;11.40;7.97;;;;;;;14.60;50.16;100756.50;5112763;28;20034;-44
2022/10/07 00:44:35;;;;;;;17.20;8.10;;;;;;;14.66;50.85;100761.06;5112656;27;20020;-43
2022/10/07 00:47:06;;;;;;;12.85;7.90;;;;;;;14.68;50.74;100748.28;5112696;28;20114;-42
2022/10/07 00:49:40;;;;;;;15.23;7.72;;;;;;;14.62;50.12;100747.25;5112602;28;20032;-42
2022/10/07 00:52:05;;;;;;;11.63;7.63;;;;;;;14.57;50.46;100746.22;5112486;28;20042;-43
2022/10/07 00:54:31;;;;;;;15.98;7.57;;;;;;;14.65;50.30;100748.69;5112413;28;20031;-42
2022/10/07 00:56:58;;;;;;;13.88;7.32;;;;;;;14.62;50.26;100755.28;5111669;28;20035;-43
2022/10/07 00:59:24;;;;;;;14.85;7.85;;;;;;;14.66;50.21;100743.13;5112271;28;20489;-44
2022/10/07 01:01:49;;;;;;;13.95;8.30;;;;;;;14.17;51.84;100752.28;5112474;28;20593;-44
2022/10/07 01:04:16;;;;;;;12.23;8.43;;;;;;;14.13;52.19;100744.88;5112548;28;20016;-44
2022/10/07 01:06:44;;;;;;;16.65;8.27;;;;;;;14.21;51.77;100744.69;5112140;28;20020;-43
2022/10/07 01:09:11;;;;;;;18.40;8.00;;;;;;;14.19;52.30;100750.25;5112287;28;20020;-43
2022/10/07 01:12:14;;;;;;;14.27;7.50;;;;;;;14.27;51.70;100742.00;5112203;28;20479;-44
2022/10/07 01:14:58;;;;;;;15.77;7.93;;;;;;;14.21;51.93;100752.72;5112240;28;20102;-45
2022/10/07 01:17:38;;;;;;;14.90;8.10;;;;;;;14.21;51.74;100739.34;5111935;28;20050;-44
2022/10/07 01:20:28;;;;;;;14.15;7.10;;;;;;;14.24;51.83;100744.25;5112276;28;20024;-44
2022/10/07 01:23:15;;;;;;;13.30;6.75;;;;;;;14.01;52.31;100742.81;5112146;28;20036;-44
2022/10/07 01:25:50;;;;;;;11.93;6.60;;;;;;;14.02;52.05;100748.97;5112134;28;20078;-43
2022/10/07 01:28:22;;;;;;;11.63;6.60;;;;;;;14.04;51.90;100737.03;5111698;28;20114;-44
2022/10/07 01:30:53;;;;;;;14.45;6.57;;;;;;;14.25;51.13;100737.91;5111706;27;20127;-44
2022/10/07 01:33:26;;;;;;;9.85;6.57;;;;;;;14.27;51.59;100733.97;5111727;28;20035;-44
2022/10/07 01:35:55;;;;;;;11.68;6.50;;;;;;;14.34;50.99;100744.72;5111956;28;20088;-44
2022/10/07 01:38:25;;;;;;;10.45;6.43;;;;;;;14.27;50.84;100733.97;5111839;28;20074;-43
2022/10/07 01:40:59;;;;;;;11.82;6.25;;;;;;;14.24;51.31;100733.56;5111702;28;20127;-44
2022/10/07 01:43:25;;;;;;;10.52;6.18;;;;;;;14.27;51.46;100728.63;5111739;28;20088;-44
2022/10/07 01:45:53;;;;;;;11.45;6.00;;;;;;;14.28;51.21;100724.94;5111369;28;20039;-43
2022/10/07 01:48:19;;;;;;;9.68;6.13;;;;;;;14.34;50.96;100715.25;5111624;28;20447;-44
2022/10/07 01:50:46;;;;;;;9.95;6.25;;;;;;;14.28;50.89;100724.13;5112177;28;20042;-44
2022/10/07 01:53:26;;;;;;;11.65;5.80;;;;;;;14.45;50.91;100727.22;5111537;28;20519;-43
2022/10/07 01:56:06;;;;;;;10.20;6.20;;;;;;;14.45;50.83;100732.59;5111466;28;20020;-43
2022/10/07 01:59:06;;;;;;;11.98;6.43;;;;;;;14.53;50.55;100729.69;5111236;28;20073;-43
2022/10/07 02:01:45;;;;;;;10.40;5.95;;;;;;;14.51;50.55;100734.44;5100844;28;20040;-44
2022/10/07 02:04:11;;;;;;;10.00;5.78;;;;;;;14.39;50.54;100731.53;5111363;28;20110;-46
2022/10/07 02:07:03;;;;;;;9.75;6.30;;;;;;;14.27;51.77;100733.97;5111110;28;20111;-43
2022/10/07 02:09:49;;;;;;;11.40;6.57;;;;;;;14.35;51.21;100726.78;5111289;28;20035;-44
2022/10/07 02:12:39;;;;;;;12.73;5.82;;;;;;;14.34;51.46;100731.31;5111018;28;20505;-43
2022/10/07 02:15:25;;;;;;;9.68;5.82;;;;;;;14.06;51.94;100740.31;5111344;28;20043;-44
2022/10/07 02:17:57;;;;;;;10.40;6.00;;;;;;;13.65;52.95;100727.00;5110883;28;20027;-43
2022/10/07 02:20:27;;;;;;;9.75;6.00;;;;;;;13.78;52.21;100721.72;5110354;27;20035;-43
2022/10/07 02:22:56;;;;;;;10.88;5.55;;;;;;;13.00;53.76;100721.91;5110870;28;20024;-43
2022/10/07 02:25:25;;;;;;;14.45;5.43;;;;;;;12.89;53.95;100725.97;5110723;28;20038;-43
2022/10/07 02:27:53;;;;;;;9.65;5.45;;;;;;;13.03;53.66;100726.06;5110591;28;20023;-43
2022/10/07 02:30:19;;;;;;;8.85;5.50;;;;;;;13.29;52.96;100728.88;5110825;28;20039;-44
2022/10/07 02:33:02;;;;;;;10.80;5.43;;;;;;;13.47;52.71;100730.22;5111012;28;20019;-44
2022/10/07 02:35:59;;;;;;;8.85;5.38;;;;;;;13.76;51.78;100722.94;5111018;28;20116;-45
2022/10/07 02:38:25;;;;;;;9.27;5.38;;;;;;;13.74;51.54;100731.16;5109324;28;20036;-43
2022/10/07 02:40:53;;;;;;;8.18;5.40;;;;;;;13.75;51.75;100722.13;5110609;28;20030;-44
2022/10/07 02:43:27;;;;;;;9.25;5.47;;;;;;;13.64;51.97;100720.03;5111013;28;20027;-45
2022/10/07 02:46:08;;;;;;;8.48;5.20;;;;;;;13.49;52.34;100720.16;5110626;28;20031;-44
2022/10/07 02:48:40;;;;;;;9.77;5.22;;;;;;;13.47;52.37;100724.88;5110650;28;20050;-44
2022/10/07 02:51:14;;;;;;;7.53;4.90;;;;;;;13.26;52.66;100723.09;5110640;28;20036;-45
2022/10/07 02:53:41;;;;;;;7.75;4.63;;;;;;;13.44;51.96;100731.47;5110346;28;20059;-44
2022/10/07 02:56:07;;;;;;;8.38;4.10;;;;;;;13.13;52.09;100717.69;5110430;28;20019;-45
2022/10/07 02:58:34;;;;;;;8.27;4.07;;;;;;;13.17;51.48;100724.28;5110216;28;20035;-44
2022/10/07 03:01:01;;;;;;;5.32;3.55;;;;;;;12.75;52.03;100726.88;5110483;28;20401;-43
2022/10/07 03:03:29;;;;;;;9.15;3.60;;;;;;;12.69;51.97;100731.13;5110410;28;20198;-43
2022/10/07 03:05:54;;;;;;;28.38;16.25;;;;;;;12.82;52.10;100729.59;5110401;28;20552;-42
2022/10/07 03:08:21;;;;;;;21.75;13.20;;;;;;;13.10;51.44;100733.09;5110368;28;20043;-44
2022/10/07 03:10:47;;;;;;;8.85;5.82;;;;;;;13.34;50.90;100739.00;5110256;28;20066;-44
2022/10/07 03:13:14;;;;;;;9.75;5.85;;;;;;;13.51;50.22;100741.34;5110414;28;20059;-43
2022/10/07 03:15:40;;;;;;;10.32;6.13;;;;;;;13.55;50.11;100746.09;5110276;28;20462;-43
2022/10/07 03:18:06;;;;;;;7.43;4.80;;;;;;;13.71;49.56;100733.41;5110068;28;20028;-42
2022/10/07 03:20:32;;;;;;;4.80;3.28;;;;;;;13.84;49.46;100757.53;5112629;28;20020;-42
2022/10/07 03:22:58;;;;;;;5.45;3.22;;;;;;;13.62;49.62;100756.84;5114598;28;20030;-43
2022/10/07 03:25:25;;;;;;;4.97;3.00;;;;;;;13.79;49.57;100754.66;5114526;28;20019;-43
2022/10/07 03:27:53;;;;;;;6.97;2.92;;;;;;;13.82;49.53;100747.06;5114043;28;20031;-44
2022/10/07 03:30:21;;;;;;;5.10;3.00;;;;;;;13.78;49.84;100750.31;5114062;28;20019;-44
2022/10/07 03:32:48;;;;;;;5.53;3.22;;;;;;;13.77;49.75;100740.66;5113989;28;20024;-42
2022/10/07 03:35:14;;;;;;;5.80;3.50;;;;;;;13.88;49.46;100732.88;5114102;28;20044;-43
2022/10/07 03:37:40;;;;;;;7.18;3.20;;;;;;;13.98;49.32;100737.03;5113956;28;20103;-43
2022/10/07 03:40:06;;;;;;;4.93;3.10;;;;;;;14.01;49.10;100732.09;5113795;28;20027;-42
2022/10/07 03:42:31;;;;;;;3.90;3.10;;;;;;;14.07;49.19;100738.50;5113842;28;20054;-42
2022/10/07 03:44:56;;;;;;;16.77;10.32;;;;;;;14.03;49.50;100732.72;5114044;28;20019;-42
2022/10/07 03:47:22;;;;;;;35.22;22.60;;;;;;;14.16;48.40;100742.59;5113668;28;20019;-42
2022/10/07 03:49:47;;;;;;;13.82;8.30;;;;;;;14.20;48.55;100741.19;5113716;28;20024;-44
2022/10/07 03:52:13;;;;;;;5.65;4.07;;;;;;;14.21;48.52;100736.66;5113893;28;20034;-43
2022/10/07 03:54:38;;;;;;;6.53;3.60;;;;;;;14.30;48.49;100740.81;5113752;28;20019;-44
2022/10/07 03:57:48;;;;;;;6.45;3.30;;;;;;;14.16;48.96;100739.09;5113703;28;20035;-44
2022/10/07 03:59:52;;;;;;;6.45;3.40;;;;;;;13.96;49.11;100742.56;5113592;28;20418;-42
2022/10/07 04:02:19;;;;;;;5.00;3.13;;;;;;;14.07;48.89;100733.94;5113509;28;20521;-42
2022/10/07 04:04:45;;;;;;;5.70;3.20;;;;;;;14.24;50.60;100747.78;5113178;28;20367;-42
2022/10/07 04:07:11;;;;;;;3.72;3.00;;;;;;;14.33;48.77;100737.69;5113478;28;20547;-43
2022/10/07 04:09:36;;;;;;;7.32;3.00;;;;;;;14.23;48.91;100743.44;5113395;28;20053;-43
2022/10/07 04:12:02;;;;;;;4.20;2.80;;;;;;;14.02;49.38;100741.75;5113276;28;20050;-43
2022/10/07 04:14:27;;;;;;;10.75;5.68;;;;;;;14.10;49.72;100740.75;5096539;28;20368;-43
2022/10/07 04:16:53;;;;;;;15.63;8.45;;;;;;;14.22;48.91;100744.50;5093413;28;20035;-44
2022/10/07 04:19:18;;;;;;;9.45;5.05;;;;;;;14.04;48.63;100753.06;5098288;28;20043;-44
2022/10/07 04:21:44;;;;;;;5.82;3.22;;;;;;;13.96;48.62;100744.44;5113539;28;20051;-43
2022/10/07 04:24:09;;;;;;;9.35;3.67;;;;;;;14.00;48.61;100754.50;5113589;28;20027;-43
2022/10/07 04:26:34;;;;;;;6.80;3.25;;;;;;;13.80;49.24;100741.09;5113432;28;20090;-44
2022/10/07 04:29:00;;;;;;;7.30;3.00;;;;;;;13.91;48.80;100738.84;5099416;28;20028;-43
2022/10/07 04:31:25;;;;;;;6.57;2.92;;;;;;;13.22;51.01;100746.72;5091694;28;20012;-42
2022/10/07 04:33:51;;;;;;;6.65;3.00;;;;;;;13.53;51.09;100750.00;5107116;28;20448;-43
2022/10/07 04:36:16;;;;;;;14.68;7.28;;;;;;;13.71;50.23;100752.97;5111934;28;20083;-42
2022/10/07 04:38:44;;;;;;;5.97;3.60;;;;;;;13.63;49.46;100758.47;5095859;28;20096;-42
2022/10/07 04:41:09;;;;;;;6.43;4.05;;;;;;;13.60;49.35;100751.69;5086959;28;20032;-43
2022/10/07 04:43:34;;;;;;;7.22;3.03;;;;;;;13.72;49.30;100751.13;5104802;28;20080;-43
2022/10/07 04:46:02;;;;;;;4.72;3.10;;;;;;;13.32;50.24;100757.09;5109591;28;20027;-43
2022/10/07 04:48:29;;;;;;;6.85;2.88;;;;;;;12.82;50.96;100750.97;5108580;28;20066;-42
2022/10/07 04:50:55;;;;;;;9.80;3.53;;;;;;;12.19;52.73;100751.63;5110016;28;20067;-42
2022/10/07 04:53:21;;;;;;;7.40;3.10;;;;;;;12.37;52.71;100753.03;5109379;28;20035;-44
2022/10/07 04:55:48;;;;;;;13.23;5.18;;;;;;;12.42;52.35;100762.13;5109407;28;20414;-43
2022/10/07 04:58:15;;;;;;;7.10;4.25;;;;;;;12.64;52.16;100759.44;5109583;28;20028;-43
2022/10/07 05:00:47;;;;;;;5.53;3.17;;;;;;;12.97;51.30;100764.25;5103464;28;20023;-42
2022/10/07 05:03:14;;;;;;;6.35;3.20;;;;;;;12.95;51.61;100767.09;5108638;28;20027;-43
2022/10/07 05:05:45;;;;;;;7.70;2.85;;;;;;;13.13;50.61;100771.13;5109768;27;20102;-41
2022/10/07 05:08:15;;;;;;;5.10;3.30;;;;;;;13.28;50.37;100775.34;5110623;28;20111;-41
2022/10/07 05:10:41;;;;;;;24.13;12.80;;;;;;;13.45;50.12;100772.38;5111346;28;20360;-41
2022/10/07 05:13:12;;;;;;;19.15;10.35;;;;;;;13.43;49.97;100771.75;5111348;28;20076;-42
2022/10/07 05:15:50;;;;;;;12.32;4.65;;;;;;;13.59;49.66;100779.44;5111272;28;20060;-42
2022/10/07 05:18:17;;;;;;;7.80;3.63;;;;;;;13.61;49.62;100779.25;5111258;28;20122;-44
2022/10/07 05:20:45;;;;;;;7.68;3.90;;;;;;;13.60;49.76;100781.09;5111171;28;20638;-42
2022/10/07 05:23:11;;;;;;;7.93;6.05;;;;;;;13.58;49.97;100787.69;5111201;28;20058;-42
2022/10/07 05:25:37;;;;;;;9.05;4.65;;;;;;;13.62;51.10;100789.75;5108762;28;20067;-41
2022/10/07 05:28:02;;;;;;;10.38;3.95;;;;;;;14.23;49.89;100794.31;5104886;28;20015;-43
2022/10/07 05:30:28;;;;;;;9.82;3.55;;;;;;;14.71;48.91;100790.72;5110125;28;20471;-43
2022/10/07 05:32:53;;;;;;;10.43;3.92;;;;;;;15.11;47.75;100789.88;5109943;28;20443;-42
2022/10/07 05:35:19;;;;;;;8.02;3.47;;;;;;;15.67;46.70;100793.88;5109997;28;20028;-42
2022/10/07 05:37:45;;;;;;;9.98;3.90;;;;;;;15.74;46.98;100790.19;5108958;28;20072;-43
2022/10/07 05:40:10;;;;;;;8.93;3.30;;;;;;;16.36;44.87;100798.56;5106304;28;20099;-44
2022/10/07 05:42:36;;;;;;;9.45;3.53;;;;;;;16.75;43.50;100802.03;5109845;28;20117;-43
2022/10/07 05:45:03;;;;;;;7.15;3.20;;;;;;;16.91;43.71;100789.13;5110327;28;20046;-36
2022/10/07 05:47:29;;;;;;;8.73;3.65;;;;;;;17.36;42.35;100795.13;5109960;28;20451;-36
2022/10/07 05:49:55;;;;;;;6.38;3.40;;;;;;;18.06;41.64;100806.56;5110376;28;20034;-36
2022/10/07 05:52:21;;;;;;;6.75;3.95;;;;;;;18.41;40.81;100808.56;5110090;28;20054;-36
2022/10/07 05:54:47;;;;;;;7.50;3.38;;;;;;;18.88;40.13;100797.91;5110966;28;20023;-36
2022/10/07 05:57:12;;;;;;;11.48;3.60;;;;;;;19.57;38.21;100800.00;5110688;28;20023;-38
2022/10/07 05:59:37;;;;;;;6.90;3.72;;;;;;;19.92;37.97;100799.97;5111073;28;20019;-35
2022/10/07 06:02:03;;;;;;;6.90;3.75;;;;;;;20.36;37.01;100802.13;5110005;28;20091;-36
2022/10/07 06:04:28;;;;;;;8.93;3.83;;;;;;;20.83;36.06;100802.69;5109358;28;20021;-36
2022/10/07 06:06:54;;;;;;;7.15;3.90;;;;;;;21.24;35.13;100794.38;5109274;28;20334;-35
2022/10/07 06:14:48;;;;;;;11.07;3.78;;;;;;;22.15;33.81;100802.03;5109094;28;20089;-36
2022/10/07 06:17:13;;;;;;;7.15;3.20;;;;;;;22.63;32.85;100808.50;5109145;28;20031;-34
2022/10/07 06:19:39;;;;;;;5.18;3.47;;;;;;;22.76;32.45;100809.16;5110911;28;20122;-37
2022/10/07 06:22:04;;;;;;;5.82;2.80;;;;;;;23.28;31.73;100807.66;5110618;28;20046;-35
2022/10/07 06:24:32;;;;;;;9.70;3.28;;;;;;;23.73;30.58;100789.94;5111561;28;20102;-35
2022/10/07 06:26:58;;;;;;;6.35;2.85;;;;;;;23.88;30.44;100795.47;5110761;28;20023;-36
2022/10/07 06:29:23;;;;;;;11.00;3.17;;;;;;;24.19;29.83;100798.25;5110733;28;20027;-36
2022/10/07 06:31:49;;;;;;;10.52;2.85;;;;;;;24.17;29.71;100795.81;5110787;28;20030;-34
2022/10/07 06:34:14;;;;;;;8.20;2.80;;;;;;;24.17;29.52;100793.09;5110939;28;20359;-36
2022/10/07 06:36:39;;;;;;;6.95;2.50;;;;;;;24.11;29.58;100799.59;5111020;28;20023;-36
2022/10/07 06:39:05;;;;;;;5.40;2.90;;;;;;;24.38;29.18;100796.66;5110698;28;20030;-35
2022/10/07 06:41:30;;;;;;;5.03;2.53;;;;;;;24.52;28.82;100794.28;5110543;28;20027;-36
2022/10/07 06:43:56;;;;;;;5.00;2.53;;;;;;;24.89;28.55;100795.09;5110131;28;20027;-36
2022/10/07 06:46:22;;;;;;;7.03;2.70;;;;;;;25.37;27.92;100795.56;5110433;28;20034;-35
2022/10/07 06:48:47;;;;;;;6.95;2.90;;;;;;;25.59;28.03;100795.22;5110284;28;20022;-36
2022/10/07 06:51:15;;;;;;;6.95;2.78;;;;;;;25.93;27.34;100791.81;5110150;28;20036;-36
2022/10/07 06:53:40;;;;;;;7.20;2.85;;;;;;;26.09;26.86;100785.19;5110006;28;20028;-36
2022/10/07 06:56:06;;;;;;;5.20;2.58;;;;;;;26.17;26.99;100788.41;5109794;28;20535;-35
2022/10/07 06:58:32;;;;;;;3.60;2.45;;;;;;;26.33;27.10;100788.03;5110385;28;20023;-36
2022/10/07 07:00:58;;;;;;;4.78;2.38;;;;;;;26.65;26.35;100794.88;5110096;28;20042;-35
2022/10/07 07:03:24;;;;;;;4.32;2.60;;;;;;;26.94;26.10;100790.53;5110399;28;20411;-35
2022/10/07 07:05:51;;;;;;;9.05;2.85;;;;;;;27.41;25.60;100789.00;5110237;28;20027;-35
2022/10/07 07:08:21;;;;;;;6.85;2.88;;;;;;;27.64;25.67;100793.63;5110078;28;20030;-35
2022/10/07 07:10:47;;;;;;;9.95;2.90;;;;;;;27.33;25.74;100798.66;5110156;28;20406;-36
2022/10/07 07:13:14;;;;;;;16.67;3.50;;;;;;;27.91;25.03;100794.94;5109880;28;20019;-36
2022/10/07 07:15:40;;;;;;;6.93;2.97;;;;;;;28.10;24.88;100799.63;5110240;28;20039;-36
2022/10/07 07:18:07;;;;;;;13.43;3.30;;;;;;;28.52;24.42;100785.06;5109957;28;20024;-35
2022/10/07 07:20:36;;;;;;;4.82;3.22;;;;;;;28.68;24.13;100785.59;5110157;28;20027;-36
2022/10/07 07:23:05;;;;;;;3.83;2.80;;;;;;;28.55;24.04;100791.84;5110199;28;20035;-37
2022/10/07 07:25:34;;;;;;;10.05;3.60;;;;;;;28.62;24.04;100787.63;5109644;28;20031;-36
2022/10/07 07:28:00;;;;;;;5.57;3.45;;;;;;;28.93;23.88;100781.59;5110053;28;20020;-35
2022/10/07 07:30:29;;;;;;;8.02;3.80;;;;;;;29.19;23.75;100783.91;5110004;28;20046;-36
2022/10/07 07:32:56;;;;;;;10.77;3.20;;;;;;;29.32;23.67;100785.84;5110025;28;20057;-36
2022/10/07 07:35:26;;;;;;;7.50;3.00;;;;;;;29.55;23.55;100770.28;5109958;28;20027;-37
2022/10/07 07:37:53;;;;;;;9.88;2.75;;;;;;;29.65;23.19;100771.19;5109798;28;20051;-36
2022/10/07 07:40:20;;;;;;;11.25;2.95;;;;;;;29.62;23.26;100780.81;5109165;28;20493;-37
2022/10/07 07:42:46;;;;;;;6.90;3.03;;;;;;;29.96;22.52;100772.16;5109185;28;20130;-37
2022/10/07 07:45:12;;;;;;;7.90;2.78;;;;;;;29.67;22.89;100768.97;5108962;28;20118;-37
2022/10/07 07:47:38;;;;;;;7.40;2.42;;;;;;;29.63;23.39;100769.56;5107826;28;20364;-36
2022/10/07 07:50:04;;;;;;;7.10;2.67;;;;;;;29.79;23.12;100763.75;5109552;28;20024;-37
2022/10/07 07:52:30;;;;;;;7.63;2.65;;;;;;;29.81;22.95;100761.53;5108669;28;20038;-37
2022/10/07 07:54:57;;;;;;;7.68;2.58;;;;;;;29.94;23.19;100771.66;5109136;28;20054;-37
2022/10/07 07:57:24;;;;;;;8.18;3.60;;;;;;;29.55;23.09;100763.97;5109085;28;20077;-36
2022/10/07 07:59:49;;;;;;;7.03;4.45;;;;;;;28.19;24.62;100763.09;5109347;28;20034;-36
2022/10/07 08:02:15;;;;;;;9.65;4.05;;;;;;;28.76;24.24;100760.25;5109258;28;20024;-37
2022/10/07 08:04:41;;;;;;;8.10;3.60;;;;;;;29.35;23.69;100763.28;5109353;28;20020;-36
2022/10/07 08:07:07;;;;;;;5.03;3.00;;;;;;;29.47;23.67;100767.44;5113451;28;20099;-36
2022/10/07 08:09:32;;;;;;;5.97;2.70;;;;;;;29.38;23.78;100759.94;5113235;28;20513;-36
2022/10/07 08:11:58;;;;;;;3.80;2.50;;;;;;;29.22;23.71;100764.09;5113405;28;20118;-37
2022/10/07 08:14:23;;;;;;;8.75;2.97;;;;;;;29.17;23.87;100759.53;5113009;28;20507;-38
2022/10/07 08:16:50;;;;;;;4.18;2.65;;;;;;;29.66;23.29;100759.09;5112854;28;20019;-37
2022/10/07 08:19:15;;;;;;;9.23;3.65;;;;;;;29.90;22.87;100750.66;5110525;28;20070;-37
2022/10/07 08:21:41;;;;;;;8.70;3.72;;;;;;;29.38;23.14;100753.66;5113498;28;20078;-37
2022/10/07 08:24:08;;;;;;;7.68;3.90;;;;;;;29.40;24.07;100749.47;5113561;28;20107;-37
2022/10/07 08:26:36;;;;;;;9.30;3.13;;;;;;;29.48;23.64;100752.63;5114115;28;20027;-36
2022/10/07 08:29:03;;;;;;;5.55;2.63;;;;;;;28.40;24.74;100749.88;5113500;28;20054;-37
2022/10/07 08:31:29;;;;;;;7.03;2.80;;;;;;;29.12;23.95;100748.63;5113330;27;20035;-36
2022/10/07 08:33:58;;;;;;;5.72;2.80;;;;;;;29.46;23.73;100744.72;5113270;28;20030;-35
2022/10/07 08:36:25;;;;;;;4.25;2.55;;;;;;;29.98;22.95;100738.94;5112670;28;20506;-37
2022/10/07 08:38:51;;;;;;;10.73;2.83;;;;;;;30.34;22.12;100738.91;5112850;28;20027;-37
2022/10/07 08:41:35;;;;;;;6.57;2.47;;;;;;;30.27;22.44;100733.00;5112820;28;20093;-37
2022/10/07 08:44:18;;;;;;;6.50;3.13;;;;;;;30.28;22.21;100733.84;5113121;28;20027;-37
2022/10/07 08:46:56;;;;;;;11.27;3.15;;;;;;;30.54;22.18;100731.25;5112940;28;20030;-36
2022/10/07 08:49:32;;;;;;;5.07;2.85;;;;;;;30.71;21.66;100725.88;5112377;28;20035;-36
2022/10/07 08:52:17;;;;;;;6.22;1.90;;;;;;;30.83;21.76;100725.28;5112853;28;20051;-37
2022/10/07 08:54:42;;;;;;;4.80;2.50;;;;;;;30.84;21.63;100724.16;5112493;28;20047;-36
2022/10/07 08:57:20;;;;;;;4.80;2.03;;;;;;;30.19;21.78;100715.34;5112588;28;20028;-36
2022/10/07 08:59:53;;;;;;;4.47;2.10;;;;;;;29.71;22.07;100712.38;5110449;28;20074;-35
2022/10/07 09:02:35;;;;;;;3.53;2.10;;;;;;;29.70;22.71;100708.00;5092183;28;20028;-36
2022/10/07 09:05:28;;;;;;;3.65;2.00;;;;;;;29.71;22.16;100706.88;5092103;28;20032;-36
2022/10/07 09:08:01;;;;;;;4.13;2.20;;;;;;;29.50;22.90;100699.09;5090933;28;20024;-36
2022/10/07 09:10:37;;;;;;;4.68;2.38;;;;;;;29.86;22.52;100700.28;5090961;28;20148;-36
2022/10/07 09:13:03;;;;;;;6.10;2.40;;;;;;;30.20;21.92;100700.53;5090594;28;20035;-37
2022/10/07 09:15:40;;;;;;;3.30;2.10;;;;;;;30.07;21.90;100697.84;5090421;28;20080;-36
2022/10/07 09:18:37;;;;;;;7.80;2.05;;;;;;;30.09;21.50;100685.44;5090141;28;20024;-36
2022/10/07 09:21:07;;;;;;;5.55;2.00;;;;;;;30.24;21.28;100686.97;5090657;28;20496;-37
2022/10/07 09:23:34;;;;;;;5.55;2.10;;;;;;;30.13;21.47;100680.13;5090956;28;20034;-36
2022/10/07 09:26:00;;;;;;;6.65;2.15;;;;;;;29.00;22.68;100680.66;5091136;28;20040;-37
2022/10/07 09:28:28;;;;;;;3.47;1.85;;;;;;;29.28;22.03;100672.44;5091147;28;20073;-36
2022/10/07 09:30:57;;;;;;;5.30;1.98;;;;;;;29.37;22.01;100667.84;5090691;28;20046;-37
2022/10/07 09:33:23;;;;;;;3.08;2.15;;;;;;;29.91;21.73;100667.22;5091674;28;20028;-37
2022/10/07 09:35:56;;;;;;;4.03;2.67;;;;;;;29.83;21.88;100660.53;5091418;28;20027;-37
2022/10/07 09:38:38;;;;;;;5.07;3.97;;;;;;;29.78;21.94;100644.22;5091118;28;20034;-36
2022/10/07 09:41:23;;;;;;;5.03;2.53;;;;;;;30.05;21.63;100647.97;5090974;28;20483;-38
2022/10/07 09:43:48;;;;;;;5.53;3.63;;;;;;;29.92;21.64;100649.63;5089574;28;20383;-35
2022/10/07 09:46:30;;;;;;;8.35;4.03;;;;;;;29.53;22.28;100638.19;5090752;28;20103;-37
2022/10/07 09:48:58;;;;;;;4.93;2.53;;;;;;;29.71;21.76;100641.06;5090640;28;20036;-37
2022/10/07 09:51:25;;;;;;;3.08;1.85;;;;;;;29.49;22.40;100626.19;5090652;28;20046;-37
2022/10/07 09:54:00;;;;;;;4.43;2.05;;;;;;;30.21;21.59;100629.97;5090685;28;20059;-37
2022/10/07 09:56:39;;;;;;;3.58;2.10;;;;;;;30.08;21.54;100625.38;5090265;28;20032;-34
2022/10/07 09:59:24;;;;;;;3.53;2.00;;;;;;;30.34;21.38;100629.09;5090226;28;20556;-36
2022/10/07 10:01:54;;;;;;;3.17;2.00;;;;;;;29.78;22.03;100617.59;5090255;28;20032;-36
2022/10/07 10:04:27;;;;;;;3.65;1.98;;;;;;;29.77;22.16;100621.44;5090398;28;20038;-36
2022/10/07 10:06:55;;;;;;;8.23;2.20;;;;;;;29.68;21.70;100614.25;5091090;28;20028;-36
2022/10/07 10:09:24;;;;;;;5.57;2.28;;;;;;;30.09;22.33;100605.03;5090664;28;20020;-36
2022/10/07 10:12:13;;;;;;;6.50;2.08;;;;;;;29.58;21.88;100601.59;5090516;28;20050;-36
2022/10/07 10:14:48;;;;;;;2.45;2.00;;;;;;;29.71;22.31;100595.25;5090473;28;20028;-36
2022/10/07 10:17:27;;;;;;;4.07;2.00;;;;;;;30.14;20.64;100594.75;5090556;28;20081;-36
2022/10/07 10:19:52;;;;;;;2.65;1.90;;;;;;;29.47;20.95;100587.31;5089820;28;20032;-36
2022/10/07 10:22:29;;;;;;;6.28;1.85;;;;;;;28.82;21.88;100574.75;5090315;28;20040;-36
2022/10/07 10:28:04;;;;;;;4.50;2.00;;;;;;;29.38;21.42;100568.06;5090185;28;20039;-37
2022/10/07 10:30:30;;;;;;;6.90;2.80;;;;;;;30.20;20.94;100568.78;5089394;28;20106;-37
2022/10/07 10:34:00;;;;;;;4.85;2.13;;;;;;;30.72;20.38;100564.63;5090288;28;20472;-37
2022/10/07 10:36:29;;;;;;;6.07;2.30;;;;;;;30.02;21.29;100564.31;4956943;28;20043;-37
2022/10/07 10:39:00;;;;;;;;;;;;;;;29.97;23.24;100564.47;5109423;28;20223;-37
2022/10/07 10:41:31;;;;;;;;;;;;;;;29.56;22.41;100552.53;5110906;28;19907;-36
2022/10/07 10:44:21;;;;;;;4.20;2.10;;;;;;;30.32;21.84;100548.19;5110178;28;20304;-38
2022/10/07 10:47:02;;;;;;;;;;;;;;;31.10;21.38;100540.16;5110667;28;20037;-37
2022/10/07 10:49:53;;;;;;;4.05;2.20;;;;;;;31.45;19.87;100534.63;5110171;28;19915;-37
2022/10/07 10:52:51;;;;;;;5.65;1.90;;;;;;;31.71;19.31;100523.63;5110153;28;20036;-37
2022/10/07 10:55:35;;;;;;;3.13;1.70;;;;;;;31.96;19.55;100519.19;5110253;28;20515;-36
2022/10/07 10:58:37;;;;;;;9.02;2.08;;;;;;;31.29;19.94;100495.84;5110129;28;20064;-37
2022/10/07 11:01:22;;;;;;;2.47;1.90;;;;;;;31.02;19.71;100504.44;5110221;28;20506;-37
2022/10/07 11:04:13;;;;;;;2.92;1.85;;;;;;;30.82;19.83;100505.84;5110186;28;20019;-37
2022/10/07 11:06:43;;;;;;;4.60;1.73;;;;;;;30.36;19.92;100508.00;5110322;28;20080;-37
2022/10/07 11:09:16;;;;;;;2.83;1.75;;;;;;;30.45;19.84;100502.53;5110439;28;20055;-37
2022/10/07 11:11:43;;;;;;;3.17;1.70;;;;;;;30.85;19.64;100502.47;5110239;28;20028;-37
2022/10/07 11:14:21;;;;;;;3.72;1.80;;;;;;;30.95;19.32;100496.66;5110152;28;20027;-37
2022/10/07 11:16:52;;;;;;;3.03;1.83;;;;;;;30.74;18.86;100500.00;5110393;28;20015;-37
2022/10/07 11:19:35;;;;;;;3.45;1.60;;;;;;;30.99;18.86;100495.69;5109865;28;20039;-37
2022/10/07 11:22:02;;;;;;;2.60;1.85;;;;;;;31.10;18.72;100495.38;5109908;28;20048;-36
2022/10/07 11:24:38;;;;;;;4.78;1.73;;;;;;;30.88;19.47;100482.56;5110497;28;20076;-37
2022/10/07 11:27:31;;;;;;;2.97;1.70;;;;;;;30.91;19.11;100487.44;5110530;28;20058;-37
2022/10/07 11:30:06;;;;;;;3.35;1.88;;;;;;;30.81;19.97;100480.31;5109953;28;20424;-37
2022/10/07 11:32:56;;;;;;;3.00;2.03;;;;;;;30.08;20.35;100479.94;5108545;28;20030;-37
2022/10/07 11:35:28;;;;;;;5.97;1.90;;;;;;;30.41;20.04;100472.19;5110048;28;20034;-36
2022/10/07 11:38:02;;;;;;;3.75;1.98;;;;;;;30.20;20.16;100474.66;5110193;28;20023;-37
2022/10/07 11:40:33;;;;;;;4.55;2.88;;;;;;;30.01;20.43;100472.97;5110975;28;20035;-37
2022/10/07 11:43:11;;;;;;;4.95;2.20;;;;;;;30.47;19.97;100459.91;5113997;28;20464;-38
2022/10/07 11:46:16;;;;;;;2.85;1.90;;;;;;;30.42;19.21;100457.31;5113860;28;20073;-36
2022/10/07 11:48:48;;;;;;;2.90;1.80;;;;;;;28.44;20.83;100452.59;5114151;28;20031;-36